Terminal Aerodrome Forecast
Issued by NWS

Home | Current Version | Previous Version | Text Only | Print | Product List | Glossary On
Versions: 1 2 3 4 5 6 7 8 9 10 11 12 13 14
586
FTUS43 KDTX 241729
TAFDET
TAF
KDET 241729Z 2418/2518 23010KT P6SM FEW060
     FM250100 23005KT P6SM SCT200
     FM251400 21010KT P6SM SCT050 BKN150=

USA.gov is the U.S. government's official web portal to all federal, state and local government web resources and services.